Airfield :
LOGIN :

Register | Disclaimer

   EN    FR    IT 

 










Legend :    VFR   Marginal VFR   IFR   Intensive IFR   Very Intensive IFR
Visi :
Ceiling :
>= 8 km
>= 3000ft
5 to 8 km
1000 to 3000 ft
1500m to 5 km
500 to 1000 ft
800 to 1500m
200 to 500 ft
< 800m
< 200 ft
Symbols :   Thunderstorms  Fog  Heavy snow  Heavy precipitations  Wind > 20 kt
SIGMETs :     Misc.  Thunderstorms  Icing  Turbulence  Mountain Waves  Volcanic Ashes






- Airport Elevation : 194 ft


EBCV - Chièvres

CURRENT METAR :
  • 261055Z AUTO 28004KT 2800 BR OVC009/// 01/00 Q1034 YLO

EXPIRED METARs :
  • 261025Z AUTO 29005KT 3000 BR OVC008/// 01/01 Q1034 YLO
  • 260955Z AUTO 28003KT 2000 BR OVC006/// 01/01 Q1034 YLO
  • 260925Z AUTO 24003KT 1800 BR OVC004/// 01/01 Q1034 YLO
  • 260855Z AUTO 25003KT 1500 BR OVC005/// 01/01 Q1034 AMB
  • 260825Z AUTO 24003KT 1400 BR OVC006/// 01/01 Q1034 AMB

TAF TAF EBCV
Valid from the 26 at 10:00 until the 26 at 19:00 UTC


260841Z 2610/2619 25006KT 5000 BR SCT007 BKN015
BECMG 2614/2616 9999 NSW BKN020 BY EBWM



MET'MAP, your aeronautical weather chart ! - Copyright ORBIFLY December 2007 - Disclaimer

ORBIFLY MET'MAP TEAM :

Programming & Development : Alexandra Zaïnal
Original concept : Baudouin d'Aumeries
Technical & hardware support : Manuel Goepfert
Assistance : Marc-Olivier Méhu

Contact : metmap@orbifly.com




SOURCES & CREDITS :

   NOAA